Terminal Aerodrome Forecast
Issued by NWS

Home | Current Version | Previous Version | Graphics & Text | Print | Product List | Glossary On
Versions: 1 2 3 4 5 6 7 8 9 10 11 12 13 14 15 16 17 18 19 20
000
FTUS43 KMPX 100529
TAFRNH
TAF
KRNH 100529Z 1006/1106 22006KT P6SM FEW020 BKN100
      TEMPO 1011/1012 BKN025
     FM101200 31008KT P6SM SCT020 OVC080
     FM110000 23004KT P6SM SCT020 OVC060=

USA.gov is the U.S. government's official web portal to all federal, state and local government web resources and services.